createdAt,value
2016-11-15T00:02:22.154Z,0
2016-11-15T00:03:03.808Z,0
2016-11-15T00:03:45.396Z,0
2016-11-15T00:04:27.099Z,0
2016-11-15T00:05:08.851Z,0
2016-11-15T00:07:40.062Z,0
2016-11-15T00:08:21.810Z,0
2016-11-15T00:09:03.391Z,0
2016-11-15T00:11:34.303Z,0
2016-11-15T00:12:15.819Z,0
2016-11-15T00:12:57.482Z,0
2016-11-15T00:13:39.075Z,0
2016-11-15T00:14:20.888Z,0
2016-11-15T00:15:02.587Z,0
2016-11-15T00:15:44.272Z,0
2016-11-15T00:16:26.034Z,0
2016-11-15T00:17:07.460Z,0
2016-11-15T00:17:49.212Z,0
2016-11-15T00:18:30.916Z,0
2016-11-15T00:19:12.287Z,0
2016-11-15T00:19:53.796Z,0
2016-11-15T00:20:35.409Z,0
2016-11-15T00:22:56.245Z,0
2016-11-15T00:23:37.857Z,0
2016-11-15T00:24:19.502Z,0
2016-11-15T00:25:01.197Z,0
2016-11-15T00:27:37.465Z,0
2016-11-15T00:28:19.130Z,0
2016-11-15T00:29:00.868Z,0
2016-11-15T00:29:42.544Z,0
2016-11-15T00:30:24.133Z,0
2016-11-15T00:32:24.253Z,0
2016-11-15T00:33:05.994Z,0
2016-11-15T00:33:47.752Z,0
2016-11-15T00:36:18.812Z,0
2016-11-15T00:38:18.645Z,0
2016-11-15T00:39:00.313Z,0
2016-11-15T00:41:36.716Z,0
2016-11-15T00:42:18.434Z,0
2016-11-15T00:42:59.813Z,0
2016-11-15T00:43:41.484Z,0
2016-11-15T00:44:23.209Z,0
2016-11-15T00:46:43.867Z,0
2016-11-15T00:47:25.604Z,0
2016-11-15T00:48:07.303Z,0
2016-11-15T00:50:43.706Z,0
2016-11-15T00:51:25.341Z,0
2016-11-15T00:53:40.577Z,0
2016-11-15T00:56:17.811Z,0
2016-11-15T00:56:59.470Z,0
2016-11-15T00:57:41.199Z,0
2016-11-15T01:02:11.318Z,0
2016-11-15T01:02:51.857Z,0
2016-11-15T01:03:32.375Z,0
2016-11-15T01:04:12.899Z,0
2016-11-15T01:04:53.405Z,0
2016-11-15T01:05:33.926Z,0
2016-11-15T01:06:14.429Z,0
2016-11-15T01:06:54.951Z,0
2016-11-15T01:07:35.457Z,0
2016-11-15T01:08:15.964Z,0
2016-11-15T01:08:56.461Z,0
2016-11-15T01:09:36.960Z,0
2016-11-15T01:10:17.448Z,0
2016-11-15T01:10:57.966Z,0
2016-11-15T01:11:38.487Z,0
2016-11-15T01:12:18.985Z,0
2016-11-15T01:12:59.492Z,0
2016-11-15T01:13:40.023Z,0
2016-11-15T01:14:20.542Z,0
2016-11-15T01:15:01.055Z,0
2016-11-15T01:15:41.574Z,0
2016-11-15T01:16:22.148Z,0
2016-11-15T01:17:02.660Z,0
2016-11-15T01:17:43.161Z,0
2016-11-15T01:18:23.673Z,0
2016-11-15T01:19:04.171Z,0
2016-11-15T01:19:44.668Z,0
2016-11-15T01:20:25.181Z,0
2016-11-15T01:21:05.695Z,0
2016-11-15T01:21:46.215Z,0
2016-11-15T01:22:26.720Z,0
2016-11-15T01:23:07.227Z,0
2016-11-15T01:23:47.743Z,0
2016-11-15T01:24:28.235Z,0
2016-11-15T01:25:08.755Z,0
2016-11-15T01:25:49.273Z,0
2016-11-15T01:26:29.775Z,0
2016-11-15T01:27:10.298Z,0
2016-11-15T01:27:50.814Z,0
2016-11-15T01:28:31.332Z,0
2016-11-15T01:29:11.858Z,0
2016-11-15T01:29:52.355Z,0
2016-11-15T01:30:32.866Z,0
2016-11-15T01:31:13.365Z,0
2016-11-15T01:31:53.892Z,0
2016-11-15T01:32:34.389Z,0
2016-11-15T01:33:14.928Z,0
2016-11-15T01:33:55.436Z,0
2016-11-15T01:34:35.978Z,0
2016-11-15T01:35:16.499Z,0
2016-11-15T01:35:57.025Z,0
2016-11-15T01:36:37.549Z,0
2016-11-15T01:37:18.067Z,0
2016-11-15T01:37:58.602Z,0
2016-11-15T01:38:39.115Z,0
2016-11-15T01:39:19.673Z,0
2016-11-15T01:40:00.206Z,0
2016-11-15T01:40:40.730Z,0
2016-11-15T01:41:21.295Z,0
2016-11-15T01:42:01.835Z,0
2016-11-15T01:42:42.361Z,0
2016-11-15T01:43:22.910Z,0
2016-11-15T01:44:03.429Z,0
2016-11-15T01:44:43.961Z,0
2016-11-15T01:45:24.460Z,0
2016-11-15T01:46:04.975Z,0
2016-11-15T01:46:45.491Z,0
2016-11-15T01:47:25.997Z,0
2016-11-15T01:48:06.512Z,0
2016-11-15T01:48:47.009Z,0
2016-11-15T01:49:27.529Z,0
2016-11-15T01:50:08.061Z,0
2016-11-15T01:50:48.583Z,0
2016-11-15T01:51:29.093Z,0
2016-11-15T01:52:09.606Z,0
2016-11-15T01:52:50.147Z,0
2016-11-15T01:53:30.662Z,0
2016-11-15T01:54:11.195Z,0
2016-11-15T01:54:51.706Z,0
2016-11-15T01:55:32.251Z,0
2016-11-15T01:56:12.763Z,0
2016-11-15T01:56:53.293Z,0
2016-11-15T01:57:33.831Z,0
2016-11-15T01:58:14.327Z,0
2016-11-15T01:58:54.835Z,0
2016-11-15T01:59:35.360Z,0
2016-11-15T02:00:15.868Z,0
2016-11-15T02:00:56.372Z,0
2016-11-15T02:01:36.892Z,0
2016-11-15T02:02:17.405Z,0
2016-11-15T02:02:57.910Z,0
2016-11-15T02:03:38.416Z,0
2016-11-15T02:04:18.977Z,0
2016-11-15T02:04:59.507Z,0
2016-11-15T02:05:40.025Z,0
2016-11-15T02:06:20.536Z,0
2016-11-15T02:07:01.044Z,0
2016-11-15T02:07:41.566Z,0
2016-11-15T02:08:22.092Z,0
2016-11-15T02:09:02.647Z,0
2016-11-15T02:09:43.183Z,0
2016-11-15T02:10:23.729Z,0
2016-11-15T02:11:04.282Z,0
2016-11-15T02:11:44.820Z,0
2016-11-15T02:12:25.358Z,0
2016-11-15T02:13:05.885Z,0
2016-11-15T02:13:46.418Z,0
2016-11-15T02:14:26.926Z,0
2016-11-15T02:15:07.443Z,0
2016-11-15T02:15:47.964Z,0
2016-11-15T02:16:28.475Z,0
2016-11-15T02:17:08.972Z,0
2016-11-15T02:17:49.475Z,0
2016-11-15T02:18:30.000Z,0
2016-11-15T02:19:10.511Z,0
2016-11-15T02:19:51.020Z,0
2016-11-15T02:20:31.538Z,0
2016-11-15T02:21:12.047Z,0
2016-11-15T02:21:52.561Z,0
2016-11-15T02:22:33.079Z,0
2016-11-15T02:23:13.592Z,0
2016-11-15T02:23:54.073Z,0
2016-11-15T02:24:34.571Z,0
2016-11-15T02:25:15.106Z,0
2016-11-15T02:25:55.617Z,0
2016-11-15T02:26:36.138Z,0
2016-11-15T02:27:16.654Z,0
2016-11-15T02:27:57.165Z,0
2016-11-15T02:28:37.682Z,0
2016-11-15T02:29:18.175Z,0
2016-11-15T02:29:58.670Z,0
2016-11-15T02:30:39.239Z,0
2016-11-15T02:31:19.754Z,0
2016-11-15T02:32:00.244Z,0
2016-11-15T02:32:40.775Z,0
2016-11-15T02:33:21.297Z,0
2016-11-15T02:34:01.819Z,0
2016-11-15T02:34:42.330Z,0
2016-11-15T02:35:22.850Z,0
2016-11-15T02:36:03.385Z,0
2016-11-15T02:36:43.903Z,0
2016-11-15T02:37:24.432Z,0
2016-11-15T02:38:04.927Z,0
2016-11-15T02:38:45.476Z,0
2016-11-15T02:39:26.001Z,0
2016-11-15T02:40:06.553Z,0
2016-11-15T02:40:47.071Z,0
2016-11-15T02:41:27.574Z,0
2016-11-15T02:42:08.094Z,0
2016-11-15T02:42:48.614Z,0
2016-11-15T02:43:29.126Z,0
2016-11-15T02:44:09.651Z,0
2016-11-15T02:44:50.155Z,0
2016-11-15T02:45:30.688Z,0
2016-11-15T02:46:11.238Z,0
2016-11-15T02:46:51.738Z,0
2016-11-15T02:47:32.249Z,0
2016-11-15T02:48:12.785Z,0
2016-11-15T02:48:53.296Z,0
2016-11-15T02:49:33.806Z,0
2016-11-15T02:50:14.300Z,0
2016-11-15T02:50:54.826Z,0
2016-11-15T02:51:35.338Z,0
2016-11-15T02:52:15.851Z,0
2016-11-15T02:52:56.358Z,0
2016-11-15T02:53:36.875Z,0
2016-11-15T02:54:17.423Z,0
2016-11-15T02:54:57.969Z,0
2016-11-15T02:55:38.493Z,0
2016-11-15T02:56:19.026Z,0
2016-11-15T02:56:59.567Z,0
2016-11-15T02:57:40.077Z,0
2016-11-15T02:58:20.599Z,0
2016-11-15T02:59:01.105Z,0
2016-11-15T02:59:41.630Z,0
2016-11-15T03:00:22.125Z,0
2016-11-15T03:01:02.638Z,0
2016-11-15T03:01:43.149Z,0
2016-11-15T03:02:23.652Z,0
2016-11-15T03:03:04.166Z,0
2016-11-15T03:03:44.666Z,0
2016-11-15T03:04:25.191Z,0
2016-11-15T03:05:05.683Z,0
2016-11-15T03:05:46.177Z,0
2016-11-15T03:06:26.694Z,0
2016-11-15T03:07:07.213Z,0
2016-11-15T03:07:47.726Z,0
2016-11-15T03:08:28.255Z,0
2016-11-15T03:09:08.763Z,0
2016-11-15T03:09:49.288Z,0
2016-11-15T03:10:29.790Z,0
2016-11-15T03:11:10.301Z,0
2016-11-15T03:11:50.836Z,0
2016-11-15T03:12:31.353Z,0
2016-11-15T03:13:11.899Z,0
2016-11-15T03:13:52.434Z,0
2016-11-15T03:14:32.929Z,0
2016-11-15T03:15:13.422Z,0
2016-11-15T03:15:54.001Z,0
2016-11-15T03:16:34.511Z,0
2016-11-15T03:17:15.034Z,0
2016-11-15T03:17:55.579Z,0
2016-11-15T03:18:36.099Z,0
2016-11-15T03:19:16.630Z,0
2016-11-15T03:19:57.133Z,0
2016-11-15T03:20:37.650Z,0
2016-11-15T03:21:18.147Z,0
2016-11-15T03:21:58.679Z,0
2016-11-15T03:22:39.187Z,0
2016-11-15T03:23:19.702Z,0
2016-11-15T03:24:00.230Z,0
2016-11-15T03:24:40.743Z,0
2016-11-15T03:25:21.276Z,0
2016-11-15T03:26:01.793Z,0
2016-11-15T03:26:42.330Z,0
2016-11-15T03:27:22.853Z,0
2016-11-15T03:28:03.378Z,0
2016-11-15T03:28:43.898Z,0
2016-11-15T03:29:24.399Z,0
2016-11-15T03:30:04.910Z,0
2016-11-15T03:30:45.453Z,0
2016-11-15T03:31:25.970Z,0
2016-11-15T03:32:06.498Z,0
2016-11-15T03:32:47.009Z,0
2016-11-15T03:33:27.524Z,0
2016-11-15T03:34:08.042Z,0
2016-11-15T03:34:48.568Z,0
2016-11-15T03:35:29.091Z,0
2016-11-15T03:36:09.609Z,0
2016-11-15T03:36:50.118Z,0
2016-11-15T03:37:30.608Z,0
2016-11-15T03:38:11.117Z,0
2016-11-15T03:38:51.622Z,0
2016-11-15T03:39:32.127Z,0
2016-11-15T03:40:12.646Z,0
2016-11-15T03:40:53.161Z,0
2016-11-15T03:41:33.679Z,0
2016-11-15T03:42:14.182Z,0
2016-11-15T03:42:54.711Z,0
2016-11-15T03:43:35.229Z,0
2016-11-15T03:44:15.745Z,0
2016-11-15T03:44:56.267Z,0
2016-11-15T03:45:36.789Z,0
2016-11-15T03:46:17.298Z,0
2016-11-15T03:46:57.810Z,0
2016-11-15T03:47:38.348Z,0
2016-11-15T03:48:18.875Z,0
2016-11-15T03:48:59.404Z,0
2016-11-15T03:49:39.924Z,0
2016-11-15T03:50:20.455Z,0
2016-11-15T03:51:00.971Z,0
2016-11-15T03:51:41.526Z,0
2016-11-15T03:52:22.046Z,0
2016-11-15T03:53:02.565Z,0
2016-11-15T03:53:43.119Z,0
2016-11-15T03:54:23.634Z,0
2016-11-15T03:55:04.157Z,0
2016-11-15T03:55:44.688Z,0
2016-11-15T03:56:25.209Z,0
2016-11-15T03:57:05.718Z,0
2016-11-15T03:57:46.237Z,0
2016-11-15T03:58:26.774Z,0
2016-11-15T03:59:07.286Z,0
2016-11-15T03:59:47.801Z,0
2016-11-15T04:00:28.321Z,0
2016-11-15T04:01:08.843Z,0
2016-11-15T04:01:49.357Z,0
2016-11-15T04:02:29.860Z,0
2016-11-15T04:03:10.409Z,0
2016-11-15T04:03:50.920Z,0
2016-11-15T04:04:31.437Z,0
2016-11-15T04:05:11.963Z,0
2016-11-15T04:05:52.517Z,0
2016-11-15T04:06:33.033Z,0
2016-11-15T04:07:13.565Z,0
2016-11-15T04:07:54.087Z,0
2016-11-15T04:08:34.612Z,0
2016-11-15T04:09:15.117Z,0
2016-11-15T04:09:55.625Z,0
2016-11-15T04:10:36.131Z,0
2016-11-15T04:11:16.721Z,0
2016-11-15T04:11:57.220Z,0
2016-11-15T04:12:37.743Z,0
2016-11-15T04:13:18.254Z,0
2016-11-15T04:13:58.769Z,0
2016-11-15T04:14:39.299Z,0
2016-11-15T04:15:19.817Z,0
2016-11-15T04:16:00.320Z,0
2016-11-15T04:16:40.827Z,0
2016-11-15T04:17:21.371Z,0
2016-11-15T04:18:01.873Z,0
2016-11-15T04:18:42.407Z,0
2016-11-15T04:19:22.938Z,0
2016-11-15T04:20:03.459Z,0
2016-11-15T04:20:44.033Z,0
2016-11-15T04:21:24.621Z,0
2016-11-15T04:22:05.147Z,0
2016-11-15T04:22:45.677Z,0
2016-11-15T04:23:26.191Z,0
2016-11-15T04:24:06.708Z,0
2016-11-15T04:24:47.229Z,0
2016-11-15T04:25:27.742Z,0
2016-11-15T04:26:08.246Z,0
2016-11-15T04:26:48.767Z,0
2016-11-15T04:27:29.290Z,0
2016-11-15T04:28:09.816Z,0
2016-11-15T04:28:50.321Z,0
2016-11-15T04:29:30.815Z,0
2016-11-15T04:30:11.321Z,0
2016-11-15T04:30:51.830Z,0
2016-11-15T04:31:32.333Z,0
2016-11-15T04:32:12.826Z,0
2016-11-15T04:32:53.343Z,0
2016-11-15T04:33:33.865Z,0
2016-11-15T04:34:14.405Z,0
2016-11-15T04:34:55.024Z,0
2016-11-15T04:35:35.566Z,0
2016-11-15T04:36:16.104Z,0
2016-11-15T04:36:56.638Z,0
2016-11-15T04:37:37.188Z,0
2016-11-15T04:38:17.763Z,0
2016-11-15T04:38:58.323Z,0
2016-11-15T04:39:38.872Z,0
2016-11-15T04:40:19.447Z,0
2016-11-15T04:40:59.983Z,0
2016-11-15T04:41:40.539Z,0
2016-11-15T04:42:21.122Z,0
2016-11-15T04:43:01.653Z,0
2016-11-15T04:43:42.177Z,0
2016-11-15T04:44:22.720Z,0
2016-11-15T04:45:03.259Z,0
2016-11-15T04:45:43.784Z,0
2016-11-15T04:46:24.302Z,0
2016-11-15T04:47:04.854Z,0
2016-11-15T04:47:45.370Z,0
2016-11-15T04:48:25.914Z,0
2016-11-15T04:49:06.439Z,0
2016-11-15T04:49:46.955Z,0
2016-11-15T04:50:27.483Z,0
2016-11-15T04:51:08.012Z,0
2016-11-15T04:51:48.537Z,0
2016-11-15T04:52:29.102Z,0
2016-11-15T04:53:09.623Z,0
2016-11-15T04:53:50.145Z,0
2016-11-15T04:54:30.766Z,0
2016-11-15T04:55:11.220Z,0
2016-11-15T04:55:51.732Z,0
2016-11-15T04:56:32.241Z,0
2016-11-15T04:57:12.848Z,0
2016-11-15T04:57:53.355Z,0
2016-11-15T04:58:33.895Z,0
2016-11-15T04:59:14.449Z,0
2016-11-15T04:59:54.990Z,0
2016-11-15T05:00:36.324Z,0
2016-11-15T05:01:17.570Z,0
2016-11-15T05:01:58.159Z,0
2016-11-15T05:02:39.641Z,0
2016-11-15T05:03:20.196Z,0
2016-11-15T05:04:00.769Z,0
2016-11-15T05:04:41.326Z,0
2016-11-15T05:05:21.981Z,0
2016-11-15T05:06:02.520Z,0
2016-11-15T05:06:43.071Z,0
2016-11-15T05:07:23.633Z,0
2016-11-15T05:08:04.242Z,0
2016-11-15T05:08:44.844Z,0
2016-11-15T05:09:25.372Z,0
2016-11-15T05:10:06.989Z,0
2016-11-15T05:10:47.586Z,0
2016-11-15T05:11:28.133Z,0
2016-11-15T05:12:08.648Z,0
2016-11-15T05:12:49.201Z,0
2016-11-15T05:13:29.765Z,0
2016-11-15T05:14:10.273Z,0
2016-11-15T05:16:39.707Z,0
2016-11-15T05:17:20.213Z,0
2016-11-15T05:18:00.758Z,0
2016-11-15T05:18:41.338Z,0
2016-11-15T05:19:21.882Z,0
2016-11-15T05:20:02.513Z,0
2016-11-15T05:20:43.140Z,0
2016-11-15T05:21:23.682Z,0
2016-11-15T05:22:04.204Z,0
2016-11-15T05:22:44.702Z,0
2016-11-15T05:23:25.205Z,0
2016-11-15T05:24:05.753Z,0
2016-11-15T05:24:46.265Z,0
2016-11-15T05:25:27.698Z,0
2016-11-15T05:26:08.330Z,0
2016-11-15T05:26:48.847Z,0
2016-11-15T05:27:30.236Z,0
2016-11-15T05:28:10.781Z,0
2016-11-15T05:28:51.300Z,0
2016-11-15T05:29:31.807Z,0
2016-11-15T05:30:12.339Z,0
2016-11-15T05:30:52.808Z,0
2016-11-15T05:31:33.316Z,0
2016-11-15T05:32:13.842Z,0
2016-11-15T05:32:54.366Z,0
2016-11-15T05:33:34.884Z,0
2016-11-15T05:34:15.391Z,0
2016-11-15T05:34:55.902Z,0
2016-11-15T05:35:37.337Z,0
2016-11-15T05:36:17.846Z,0
2016-11-15T05:36:58.350Z,0
2016-11-15T05:37:38.841Z,0
2016-11-15T05:38:19.359Z,0
2016-11-15T05:38:59.888Z,0
2016-11-15T05:39:40.439Z,0
2016-11-15T05:40:20.976Z,0
2016-11-15T05:41:01.480Z,0
2016-11-15T05:41:41.992Z,0
2016-11-15T05:42:22.516Z,0
2016-11-15T05:43:03.049Z,0
2016-11-15T05:43:43.556Z,0
2016-11-15T05:44:24.102Z,0
2016-11-15T05:45:04.607Z,0
2016-11-15T05:45:45.220Z,0
2016-11-15T05:46:25.792Z,0
2016-11-15T05:47:06.297Z,0
2016-11-15T05:47:46.843Z,0
2016-11-15T05:48:27.366Z,0
2016-11-15T05:49:07.885Z,0
2016-11-15T05:49:48.392Z,0
2016-11-15T05:50:28.903Z,0
2016-11-15T05:51:09.412Z,0
2016-11-15T05:51:49.942Z,0
2016-11-15T05:52:30.472Z,0
2016-11-15T05:53:10.987Z,0
2016-11-15T05:53:51.494Z,0
2016-11-15T05:54:32.007Z,0
2016-11-15T05:55:12.546Z,0
2016-11-15T05:55:53.048Z,0
2016-11-15T05:56:33.571Z,0
2016-11-15T05:57:14.107Z,0
2016-11-15T05:57:54.629Z,0
2016-11-15T05:58:35.154Z,0
2016-11-15T05:59:15.663Z,0
2016-11-15T05:59:56.196Z,0
2016-11-15T06:00:36.707Z,0
2016-11-15T06:01:17.232Z,0
2016-11-15T06:01:57.748Z,0
2016-11-15T06:02:38.255Z,0
2016-11-15T06:03:18.782Z,0
2016-11-15T06:03:59.309Z,0
2016-11-15T06:04:39.857Z,0
2016-11-15T06:05:20.366Z,0
2016-11-15T06:06:00.856Z,0
2016-11-15T06:06:41.381Z,0
2016-11-15T06:07:21.941Z,0
2016-11-15T06:08:02.502Z,0
2016-11-15T06:08:43.095Z,0
2016-11-15T06:09:23.686Z,0
2016-11-15T06:10:04.266Z,0
2016-11-15T06:10:44.778Z,0
2016-11-15T06:11:25.297Z,0
2016-11-15T06:12:05.815Z,0
2016-11-15T06:12:46.337Z,0
2016-11-15T06:13:26.845Z,0
2016-11-15T06:14:07.356Z,0
2016-11-15T06:14:47.870Z,0
2016-11-15T06:15:28.380Z,0
2016-11-15T06:16:08.883Z,0
2016-11-15T06:16:49.377Z,0
2016-11-15T06:17:29.920Z,0
2016-11-15T06:18:10.440Z,0
2016-11-15T06:18:52.730Z,0
2016-11-15T06:19:33.248Z,0
2016-11-15T06:20:13.754Z,0
2016-11-15T06:20:54.322Z,0
2016-11-15T06:21:34.853Z,0
2016-11-15T06:22:15.390Z,0
2016-11-15T06:22:55.970Z,0
2016-11-15T06:23:36.523Z,0
2016-11-15T06:24:17.057Z,0
2016-11-15T06:24:57.613Z,0
2016-11-15T06:25:38.126Z,0
2016-11-15T06:26:18.654Z,0
2016-11-15T06:26:59.183Z,4
2016-11-15T06:27:39.718Z,4
2016-11-15T06:28:20.264Z,4
2016-11-15T06:29:00.786Z,0
2016-11-15T06:29:41.320Z,0
2016-11-15T06:30:21.836Z,4
2016-11-15T06:31:02.373Z,4
2016-11-15T06:31:42.893Z,4
2016-11-15T06:32:23.417Z,4
2016-11-15T06:33:03.931Z,8
2016-11-15T06:33:44.470Z,4
2016-11-15T06:34:24.993Z,8
2016-11-15T06:35:05.510Z,8
2016-11-15T06:35:46.046Z,8
2016-11-15T06:36:26.575Z,8
2016-11-15T06:37:07.096Z,8
2016-11-15T06:39:06.216Z,12
2016-11-15T06:39:46.734Z,12
2016-11-15T06:40:27.283Z,16
2016-11-15T06:41:07.776Z,16
2016-11-15T06:41:48.325Z,16
2016-11-15T06:42:28.867Z,16
2016-11-15T06:43:09.390Z,20
2016-11-15T06:43:49.916Z,20
2016-11-15T06:44:30.463Z,20
2016-11-15T06:45:10.999Z,24
2016-11-15T06:45:51.504Z,24
2016-11-15T06:46:32.032Z,28
2016-11-15T06:47:12.586Z,28
2016-11-15T06:47:53.076Z,32
2016-11-15T06:48:33.625Z,32
2016-11-15T06:49:14.152Z,28
2016-11-15T06:49:54.690Z,32
2016-11-15T06:50:35.213Z,32
2016-11-15T06:51:15.728Z,32
2016-11-15T06:51:56.263Z,36
2016-11-15T06:52:36.794Z,36
2016-11-15T06:53:17.338Z,40
2016-11-15T06:53:57.858Z,40
2016-11-15T06:54:38.385Z,44
2016-11-15T06:55:18.935Z,44
2016-11-15T06:55:59.480Z,48
2016-11-15T06:56:39.992Z,56
2016-11-15T06:57:20.529Z,56
2016-11-15T06:58:01.062Z,64
2016-11-15T06:58:41.591Z,68
2016-11-15T06:59:22.126Z,72
2016-11-15T07:00:02.647Z,76
2016-11-15T07:00:43.227Z,80
2016-11-15T07:01:23.747Z,84
2016-11-15T07:02:04.237Z,92
2016-11-15T07:02:44.763Z,100
2016-11-15T07:03:25.303Z,100
2016-11-15T07:04:05.827Z,96
2016-11-15T07:04:46.343Z,96
2016-11-15T07:05:26.876Z,96
2016-11-15T07:06:07.399Z,96
2016-11-15T07:06:47.939Z,96
2016-11-15T07:07:28.449Z,96
2016-11-15T07:08:08.977Z,100
2016-11-15T07:08:49.529Z,100
2016-11-15T07:09:30.054Z,100
2016-11-15T07:10:10.563Z,104
2016-11-15T07:10:51.093Z,108
2016-11-15T07:11:31.628Z,116
2016-11-15T07:12:12.151Z,124
2016-11-15T07:12:52.686Z,132
2016-11-15T07:13:33.203Z,140
2016-11-15T07:14:13.793Z,148
2016-11-15T07:14:54.315Z,156
2016-11-15T07:15:34.848Z,156
2016-11-15T07:16:15.384Z,156
2016-11-15T07:16:55.914Z,152
2016-11-15T07:17:36.447Z,144
2016-11-15T07:18:16.977Z,148
2016-11-15T07:18:57.518Z,152
2016-11-15T07:19:38.052Z,152
2016-11-15T07:20:18.582Z,152
2016-11-15T07:20:59.109Z,156
2016-11-15T07:21:39.650Z,160
2016-11-15T07:22:20.177Z,160
2016-11-15T07:23:00.702Z,160
2016-11-15T07:23:41.244Z,164
2016-11-15T07:24:21.783Z,164
2016-11-15T07:25:02.309Z,168
2016-11-15T07:25:42.824Z,168
2016-11-15T07:26:23.365Z,176
2016-11-15T07:27:03.895Z,184
2016-11-15T07:27:44.430Z,188
2016-11-15T07:28:24.958Z,188
2016-11-15T07:29:05.487Z,196
2016-11-15T07:29:46.021Z,204
2016-11-15T07:30:26.546Z,212
2016-11-15T07:31:07.076Z,220
2016-11-15T07:31:47.607Z,224
2016-11-15T07:32:28.127Z,232
2016-11-15T07:33:08.658Z,236
2016-11-15T07:33:49.197Z,240
2016-11-15T07:34:29.725Z,244
2016-11-15T07:35:10.256Z,248
2016-11-15T07:35:50.790Z,248
2016-11-15T07:36:31.313Z,244
2016-11-15T07:37:11.850Z,240
2016-11-15T07:37:52.378Z,240
2016-11-15T07:38:32.904Z,240
2016-11-15T07:39:13.431Z,240
2016-11-15T07:39:53.956Z,236
2016-11-15T07:40:34.484Z,236
2016-11-15T07:41:15.013Z,236
2016-11-15T07:41:55.514Z,232
2016-11-15T07:42:36.042Z,232
2016-11-15T07:43:16.580Z,228
2016-11-15T07:43:57.109Z,224
2016-11-15T07:44:37.632Z,220
2016-11-15T07:45:18.161Z,220
2016-11-15T07:45:58.693Z,216
2016-11-15T07:46:39.233Z,220
2016-11-15T07:47:19.752Z,220
2016-11-15T07:48:00.282Z,228
2016-11-15T07:48:40.818Z,228
2016-11-15T07:49:21.355Z,228
2016-11-15T07:50:01.890Z,232
2016-11-15T07:50:42.419Z,236
2016-11-15T07:51:22.951Z,240
2016-11-15T07:52:03.477Z,244
2016-11-15T07:52:44.009Z,244
2016-11-15T07:53:24.523Z,256
2016-11-15T07:54:05.065Z,264
2016-11-15T07:54:45.599Z,252
2016-11-15T07:55:26.125Z,264
2016-11-15T07:56:06.656Z,264
2016-11-15T07:56:47.186Z,272
2016-11-15T07:57:27.720Z,280
2016-11-15T07:58:08.247Z,308
2016-11-15T07:58:48.787Z,292
2016-11-15T07:59:29.301Z,296
2016-11-15T08:00:09.821Z,300
2016-11-15T08:00:50.347Z,320
2016-11-15T08:01:30.872Z,340
2016-11-15T08:02:11.394Z,360
2016-11-15T08:02:51.920Z,372
2016-11-15T08:03:32.453Z,396
2016-11-15T08:04:12.978Z,416
2016-11-15T08:04:53.507Z,424
2016-11-15T08:05:34.041Z,460
2016-11-15T08:06:14.572Z,480
2016-11-15T08:06:55.107Z,452
2016-11-15T08:07:35.639Z,484
2016-11-15T08:08:16.170Z,520
2016-11-15T08:08:56.707Z,556
2016-11-15T08:09:37.236Z,576
2016-11-15T08:10:17.771Z,584
2016-11-15T08:10:58.303Z,620
2016-11-15T08:11:38.828Z,620
2016-11-15T08:12:19.365Z,708
2016-11-15T08:12:59.899Z,740
2016-11-15T08:13:40.429Z,756
2016-11-15T08:14:20.971Z,836
2016-11-15T08:15:01.509Z,800
2016-11-15T08:15:42.037Z,868
2016-11-15T08:16:22.565Z,860
2016-11-15T08:17:03.096Z,832
2016-11-15T08:17:43.616Z,848
2016-11-15T08:18:24.155Z,804
2016-11-15T08:19:04.691Z,780
2016-11-15T08:19:45.223Z,808
2016-11-15T08:20:25.753Z,800
2016-11-15T08:21:06.284Z,808
2016-11-15T08:21:46.822Z,748
2016-11-15T08:22:27.353Z,700
2016-11-15T08:23:07.889Z,696
2016-11-15T08:23:48.424Z,716
2016-11-15T08:24:28.959Z,720
2016-11-15T08:25:09.489Z,756
2016-11-15T08:25:50.032Z,784
2016-11-15T08:26:30.563Z,744
2016-11-15T08:27:11.090Z,700
2016-11-15T08:27:51.626Z,628
2016-11-15T08:28:32.169Z,620
2016-11-15T08:29:12.696Z,608
2016-11-15T08:29:53.235Z,612
2016-11-15T08:30:33.765Z,592
2016-11-15T08:31:14.298Z,600
2016-11-15T08:31:54.828Z,580
2016-11-15T08:32:35.365Z,548
2016-11-15T08:33:15.893Z,568
2016-11-15T08:33:56.429Z,512
2016-11-15T08:34:36.957Z,484
2016-11-15T08:35:17.488Z,484
2016-11-15T08:35:58.023Z,520
2016-11-15T08:36:38.562Z,500
2016-11-15T08:37:19.094Z,528
2016-11-15T08:37:59.631Z,516
2016-11-15T08:38:40.165Z,532
2016-11-15T08:39:20.690Z,560
2016-11-15T08:40:01.230Z,544
2016-11-15T08:40:41.766Z,504
2016-11-15T08:41:22.296Z,560
2016-11-15T08:42:02.832Z,600
2016-11-15T08:42:43.362Z,508
2016-11-15T08:43:23.899Z,540
2016-11-15T08:44:04.439Z,552
2016-11-15T08:44:44.981Z,488
2016-11-15T08:45:25.511Z,552
2016-11-15T08:46:06.048Z,536
2016-11-15T08:46:46.579Z,492
2016-11-15T08:47:27.108Z,528
2016-11-15T08:48:07.645Z,548
2016-11-15T08:48:48.185Z,524
2016-11-15T08:49:28.721Z,556
2016-11-15T08:50:09.252Z,616
2016-11-15T08:50:49.782Z,632
2016-11-15T08:51:30.317Z,660
2016-11-15T08:52:10.865Z,628
2016-11-15T08:52:51.393Z,652
2016-11-15T08:53:31.906Z,660
2016-11-15T08:54:12.439Z,708
2016-11-15T08:54:59.084Z,768
2016-11-15T08:55:33.511Z,768
2016-11-15T08:56:14.044Z,780
2016-11-15T08:56:54.578Z,920
2016-11-15T08:57:35.117Z,932
2016-11-15T08:58:15.640Z,960
2016-11-15T08:58:56.163Z,1020
2016-11-15T08:59:36.698Z,952
2016-11-15T09:00:17.229Z,1044
2016-11-15T09:00:57.736Z,1036
2016-11-15T09:01:38.264Z,1052
2016-11-15T09:02:18.802Z,1064
2016-11-15T09:02:59.353Z,1052
2016-11-15T09:03:39.894Z,1032
2016-11-15T09:04:20.418Z,1020
2016-11-15T09:05:00.940Z,988
2016-11-15T09:05:41.463Z,880
2016-11-15T09:06:22.007Z,760
2016-11-15T09:07:02.548Z,700
2016-11-15T09:07:43.076Z,628
2016-11-15T09:08:23.597Z,700
2016-11-15T09:09:04.139Z,704
2016-11-15T09:09:44.653Z,644
2016-11-15T09:10:25.187Z,644
2016-11-15T09:11:05.721Z,720
2016-11-15T09:11:46.245Z,684
2016-11-15T09:12:26.784Z,644
2016-11-15T09:13:07.311Z,672
2016-11-15T09:13:47.850Z,640
2016-11-15T09:14:28.380Z,632
2016-11-15T09:15:08.896Z,576
2016-11-15T09:15:49.424Z,596
2016-11-15T09:16:29.957Z,624
2016-11-15T09:17:10.502Z,640
2016-11-15T09:17:51.052Z,620
2016-11-15T09:18:31.577Z,704
2016-11-15T09:19:12.102Z,740
2016-11-15T09:19:52.629Z,752
2016-11-15T09:20:33.156Z,752
2016-11-15T09:21:13.691Z,776
2016-11-15T09:21:54.223Z,808
2016-11-15T09:22:34.754Z,888
2016-11-15T09:23:15.277Z,900
2016-11-15T09:23:55.812Z,988
2016-11-15T09:24:36.348Z,1048
2016-11-15T09:25:16.887Z,1096
2016-11-15T09:25:57.406Z,1200
2016-11-15T09:26:37.935Z,1248
2016-11-15T09:27:18.474Z,1272
2016-11-15T09:27:59.012Z,1308
2016-11-15T09:28:39.538Z,1276
2016-11-15T09:29:20.074Z,1272
2016-11-15T09:30:00.592Z,1244
2016-11-15T09:30:41.122Z,1180
2016-11-15T09:31:21.663Z,1116
2016-11-15T09:32:02.206Z,1012
2016-11-15T09:32:42.739Z,1020
2016-11-15T09:33:23.320Z,964
2016-11-15T09:34:03.856Z,884
2016-11-15T09:34:44.394Z,836
2016-11-15T09:35:24.931Z,860
2016-11-15T09:36:05.449Z,836
2016-11-15T09:36:45.976Z,772
2016-11-15T09:37:26.522Z,756
2016-11-15T09:38:07.053Z,804
2016-11-15T09:38:47.597Z,764
2016-11-15T09:39:28.137Z,744
2016-11-15T09:40:08.836Z,688
2016-11-15T09:40:49.184Z,708
2016-11-15T09:41:29.722Z,640
2016-11-15T09:42:10.339Z,636
2016-11-15T09:42:50.867Z,620
2016-11-15T09:43:31.395Z,608
2016-11-15T09:44:11.928Z,560
2016-11-15T09:44:52.471Z,540
2016-11-15T09:45:32.991Z,556
2016-11-15T09:46:13.522Z,544
2016-11-15T09:46:54.048Z,552
2016-11-15T09:47:34.579Z,620
2016-11-15T09:48:15.106Z,708
2016-11-15T09:48:55.657Z,792
2016-11-15T09:49:36.182Z,816
2016-11-15T09:50:16.707Z,844
2016-11-15T09:50:57.256Z,884
2016-11-15T09:51:37.786Z,900
2016-11-15T09:52:18.331Z,908
2016-11-15T09:52:58.867Z,880
2016-11-15T09:53:39.397Z,888
2016-11-15T09:54:19.927Z,864
2016-11-15T09:55:00.443Z,888
2016-11-15T09:55:40.978Z,936
2016-11-15T09:56:21.547Z,956
2016-11-15T09:57:02.077Z,956
2016-11-15T09:57:42.599Z,944
2016-11-15T09:58:23.091Z,964
2016-11-15T09:59:03.638Z,960
2016-11-15T09:59:44.175Z,936
2016-11-15T10:00:24.707Z,936
2016-11-15T10:01:05.242Z,972
2016-11-15T10:01:45.779Z,1012
2016-11-15T10:02:26.297Z,1056
2016-11-15T10:03:06.828Z,1056
2016-11-15T10:03:47.357Z,1012
2016-11-15T10:04:27.884Z,992
2016-11-15T10:05:08.407Z,988
2016-11-15T10:05:48.961Z,1008
2016-11-15T10:06:29.479Z,1016
2016-11-15T10:07:10.006Z,1072
2016-11-15T10:07:50.544Z,1168
2016-11-15T10:08:31.097Z,1232
2016-11-15T10:09:11.614Z,1316
2016-11-15T10:09:52.138Z,1320
2016-11-15T10:10:32.647Z,1376
2016-11-15T10:11:13.171Z,1452
2016-11-15T10:11:53.692Z,1432
2016-11-15T10:12:34.235Z,1400
2016-11-15T10:13:14.764Z,1376
2016-11-15T10:13:55.294Z,1312